Etusivu
METAR-TAF:

METAR-TAF

Lentoasemat :

Annette Island, Alaska, Yhdysvallat

Leveyspiiri: 55-02-32N, Pituuspiiri: 131-34-20W, korkeus merenpinnasta: 36 m

Tämänhetkinen sää

Tämä raportti tehtiin 1 tunti ja 42 minuuttia sitten, kello 19.53 UTC
Tuuli 11 kn kaakosta
Lämpötila 9°C
Kosteus 76%
Ilmanpaine 1014 hPa
Näkyvyys: 16.1 km
selkeää

METAR: PANT 191953Z AUTO 13011KT 10SM CLR 09/05 A2995 RMK SLP142 T00890050 TSNO VIA AUTODIAL

Aika: 12:35 (21:35 UTC)


TAF: puuttuu

Säähavainnot ja -ennusteet yli 4000 lentoasemalta (METAR- ja TAF-raportit).

Käytössä olevat sääasemat on merkitty karttaan keltaisilla ja punaisilla pisteillä.

Aseta hiiri pisteen päälle nähdäksesi sääaseman nimen.

Klikkaa sitten nähdäksesi säähavainnot ja -ennusteet.

Kartan vaihtaminen: klikkaa mustalla rastilla varustettuja vihreitä pisteitä, niin voit zoomata sisään; viivalla varustettua vihreää pistettä, niin voit zoomata ulos tai vihreitä nuolia, niin pääset viereisille kartoille.


METAR-TAF: